Time;durP1;ratioP1;P1;durP2;ratioP2;P2;SDS_P1;SDS_P2;PMS_P1;PMS_P2;Temp;Humidity;BMP_temperature;BMP_pressure;BME280_temperature;BME280_humidity;BME280_pressure;Samples;Min_cycle;Max_cycle;Signal;HPM_P1;HPM_P2
2022/02/26 00:00:07;;;;;;;19.60;3.50;;;;;;;;;;5094303;28;20220;-65
2022/02/26 00:02:33;;;;;;;21.55;4.00;;;;;;;;;;5094385;28;20645;-65
2022/02/26 00:04:59;;;;;;;19.08;3.72;;;;;;;;;;5094784;28;20213;-65
2022/02/26 00:07:25;;;;;;;28.60;4.13;;;;;;;;;;5094369;28;20160;-65
2022/02/26 00:09:51;;;;;;;23.70;3.78;;;;;;;;;;5094386;28;20205;-65
2022/02/26 00:12:17;;;;;;;21.38;3.70;;;;;;;;;;5094195;28;20198;-65
2022/02/26 00:14:43;;;;;;;19.00;3.63;;;;;;;;;;5094277;28;20175;-65
2022/02/26 00:17:09;;;;;;;23.23;4.55;;;;;;;;;;5094114;28;20246;-65
2022/02/26 00:19:35;;;;;;;23.27;3.35;;;;;;;;;;5094025;28;20282;-65
2022/02/26 00:22:01;;;;;;;26.95;4.85;;;;;;;;;;5094469;28;20163;-65
2022/02/26 00:24:27;;;;;;;23.70;4.25;;;;;;;;;;5094371;28;20178;-65
2022/02/26 00:26:53;;;;;;;30.45;4.32;;;;;;;;;;5094150;28;20595;-65
2022/02/26 00:29:19;;;;;;;20.65;3.50;;;;;;;;;;5094020;28;20173;-65
2022/02/26 00:31:45;;;;;;;24.30;3.92;;;;;;;;;;5094226;28;20167;-65
2022/02/26 00:34:11;;;;;;;23.30;4.10;;;;;;;;;;5094189;28;20506;-65
2022/02/26 00:36:37;;;;;;;17.02;4.30;;;;;;;;;;5093975;28;20657;-65
2022/02/26 00:39:03;;;;;;;18.90;3.75;;;;;;;;;;5094013;28;20206;-65
2022/02/26 00:41:29;;;;;;;20.52;4.07;;;;;;;;;;5093992;28;20167;-65
2022/02/26 00:43:55;;;;;;;17.63;3.65;;;;;;;;;;5094256;28;20163;-65
2022/02/26 00:46:21;;;;;;;24.17;4.38;;;;;;;;;;5093813;28;20262;-65
2022/02/26 00:51:31;;;;;;;24.35;4.38;;;;;;;;;;5094037;28;20163;-64
2022/02/26 00:53:57;;;;;;;32.53;4.25;;;;;;;;;;5093757;28;20510;-65
2022/02/26 00:56:23;;;;;;;20.80;4.28;;;;;;;;;;5094101;28;20288;-65
2022/02/26 00:58:51;;;;;;;24.00;4.85;;;;;;;;;;5093634;28;20187;-64
2022/02/26 01:01:16;;;;;;;23.40;4.53;;;;;;;;;;5094439;28;20238;-65
2022/02/26 01:03:43;;;;;;;15.77;3.38;;;;;;;;;;5094305;28;20164;-65
2022/02/26 01:06:08;;;;;;;31.10;5.13;;;;;;;;;;5094226;28;20194;-65
2022/02/26 01:08:34;;;;;;;25.08;4.57;;;;;;;;;;5093977;28;20174;-65
2022/02/26 01:11:00;;;;;;;25.02;3.15;;;;;;;;;;5094078;28;20194;-65
2022/02/26 01:13:26;;;;;;;23.90;4.80;;;;;;;;;;5094092;28;20164;-65
2022/02/26 01:15:52;;;;;;;23.65;4.18;;;;;;;;;;5094953;28;20164;-64
2022/02/26 01:18:18;;;;;;;13.68;3.75;;;;;;;;;;5094683;28;20155;-65
2022/02/26 01:20:44;;;;;;;16.70;3.05;;;;;;;;;;5094025;28;20267;-65
2022/02/26 01:23:10;;;;;;;13.95;3.17;;;;;;;;;;5093525;28;20159;-64
2022/02/26 01:25:36;;;;;;;21.67;4.30;;;;;;;;;;5093694;28;20486;-64
2022/02/26 01:28:02;;;;;;;16.30;3.28;;;;;;;;;;5093618;28;20171;-64
2022/02/26 01:30:28;;;;;;;15.50;3.72;;;;;;;;;;5093274;28;20486;-64
2022/02/26 01:32:54;;;;;;;22.52;4.13;;;;;;;;;;5093473;28;20174;-65
2022/02/26 01:35:20;;;;;;;22.83;3.70;;;;;;;;;;5093262;28;20187;-64
2022/02/26 01:37:46;;;;;;;22.50;3.88;;;;;;;;;;5093658;28;20171;-65
2022/02/26 01:40:12;;;;;;;17.13;3.42;;;;;;;;;;5092288;28;20349;-65
2022/02/26 01:42:39;;;;;;;14.18;3.50;;;;;;;;;;5093352;28;20251;-64
2022/02/26 01:45:10;;;;;;;18.80;3.35;;;;;;;;;;5101139;28;20243;-65
2022/02/26 01:47:36;;;;;;;22.00;3.55;;;;;;;;;;5093443;28;20216;-65
2022/02/26 01:50:02;;;;;;;11.60;2.75;;;;;;;;;;5093281;28;20164;-64
2022/02/26 01:52:28;;;;;;;12.82;2.70;;;;;;;;;;5093174;28;20244;-64
2022/02/26 01:54:54;;;;;;;14.50;2.83;;;;;;;;;;5093198;28;20164;-64
2022/02/26 01:57:20;;;;;;;13.48;2.60;;;;;;;;;;5093098;28;20206;-65
2022/02/26 01:59:45;;;;;;;12.02;3.08;;;;;;;;;;5092827;28;20638;-65
2022/02/26 02:02:11;;;;;;;11.98;2.65;;;;;;;;;;5092934;28;20220;-65
2022/02/26 02:04:37;;;;;;;16.70;2.90;;;;;;;;;;5092795;28;20264;-65
2022/02/26 02:07:04;;;;;;;18.38;3.25;;;;;;;;;;5094456;28;20167;-65
2022/02/26 02:09:29;;;;;;;12.18;3.08;;;;;;;;;;5096622;28;20190;-65
2022/02/26 02:11:56;;;;;;;8.98;2.88;;;;;;;;;;5096633;28;20634;-64
2022/02/26 02:14:21;;;;;;;17.33;2.90;;;;;;;;;;5096557;28;20217;-64
2022/02/26 02:16:47;;;;;;;15.02;2.90;;;;;;;;;;5095719;28;20172;-65
2022/02/26 02:19:13;;;;;;;17.10;3.28;;;;;;;;;;5096296;28;20187;-65
2022/02/26 02:21:39;;;;;;;16.50;3.35;;;;;;;;;;5096551;28;20171;-65
2022/02/26 02:24:06;;;;;;;13.70;2.47;;;;;;;;;;5096553;28;20163;-64
2022/02/26 02:26:33;;;;;;;14.80;2.83;;;;;;;;;;5096371;28;20168;-65
2022/02/26 02:29:00;;;;;;;17.38;2.60;;;;;;;;;;5096535;28;20204;-66
2022/02/26 02:31:27;;;;;;;14.07;2.67;;;;;;;;;;5095170;28;20232;-65
2022/02/26 02:33:53;;;;;;;12.82;3.30;;;;;;;;;;5096224;28;20321;-65
2022/02/26 02:36:19;;;;;;;11.48;2.75;;;;;;;;;;5096415;28;20605;-63
2022/02/26 02:38:45;;;;;;;17.85;3.10;;;;;;;;;;5096075;28;20179;-64
2022/02/26 02:41:11;;;;;;;12.95;2.90;;;;;;;;;;5096249;28;20156;-66
2022/02/26 02:43:37;;;;;;;10.02;2.50;;;;;;;;;;5095997;28;20537;-65
2022/02/26 02:46:03;;;;;;;11.35;2.55;;;;;;;;;;5095953;28;20199;-66
2022/02/26 02:48:29;;;;;;;8.57;2.30;;;;;;;;;;5096007;28;20202;-66
2022/02/26 02:50:55;;;;;;;10.02;2.50;;;;;;;;;;5096371;28;20178;-65
2022/02/26 02:53:21;;;;;;;11.70;2.40;;;;;;;;;;5095798;28;20171;-65
2022/02/26 02:55:48;;;;;;;10.65;2.58;;;;;;;;;;5095746;28;20207;-65
2022/02/26 02:58:18;;;;;;;13.75;2.22;;;;;;;;;;5095683;28;20174;-65
2022/02/26 03:00:44;;;;;;;10.52;2.35;;;;;;;;;;5095667;28;20654;-65
2022/02/26 03:03:10;;;;;;;9.77;2.00;;;;;;;;;;5095607;28;20171;-65
2022/02/26 03:05:37;;;;;;;16.08;2.38;;;;;;;;;;5095503;28;20168;-65
2022/02/26 03:08:03;;;;;;;7.45;2.03;;;;;;;;;;5095809;28;20615;-65
2022/02/26 03:10:29;;;;;;;7.60;2.20;;;;;;;;;;5095431;28;20553;-65
2022/02/26 03:12:55;;;;;;;13.43;2.13;;;;;;;;;;5095370;28;20167;-65
2022/02/26 03:15:21;;;;;;;13.50;2.10;;;;;;;;;;5095399;28;20175;-65
2022/02/26 03:17:47;;;;;;;13.95;2.10;;;;;;;;;;5095539;28;20499;-65
2022/02/26 03:20:13;;;;;;;12.15;2.80;;;;;;;;;;5095498;28;20188;-65
2022/02/26 03:22:39;;;;;;;12.50;2.17;;;;;;;;;;5095229;28;20164;-65
2022/02/26 03:25:06;;;;;;;15.63;2.20;;;;;;;;;;5095458;28;20147;-65
2022/02/26 03:27:32;;;;;;;7.72;1.65;;;;;;;;;;5095422;28;20168;-65
2022/02/26 03:29:59;;;;;;;12.73;2.50;;;;;;;;;;5095396;28;20247;-65
2022/02/26 03:32:25;;;;;;;15.70;2.20;;;;;;;;;;5095278;28;20540;-65
2022/02/26 03:34:51;;;;;;;7.55;2.15;;;;;;;;;;5095240;28;20644;-65
2022/02/26 03:37:17;;;;;;;12.18;2.60;;;;;;;;;;5094940;28;20179;-65
2022/02/26 03:39:44;;;;;;;9.80;2.38;;;;;;;;;;5094809;28;20797;-65
2022/02/26 03:42:11;;;;;;;6.63;1.77;;;;;;;;;;5095037;28;20160;-65
2022/02/26 03:44:38;;;;;;;12.15;2.75;;;;;;;;;;5094826;28;20583;-65
2022/02/26 03:47:05;;;;;;;11.13;2.65;;;;;;;;;;5095124;28;20164;-65
2022/02/26 03:49:31;;;;;;;8.80;2.38;;;;;;;;;;5095058;28;20163;-65
2022/02/26 03:51:58;;;;;;;9.80;1.85;;;;;;;;;;5095048;28;20483;-66
2022/02/26 03:54:24;;;;;;;10.43;1.95;;;;;;;;;;5094735;28;20227;-65
2022/02/26 03:56:50;;;;;;;11.25;2.22;;;;;;;;;;5094734;28;20167;-66
2022/02/26 03:59:16;;;;;;;8.20;2.10;;;;;;;;;;5094551;28;20509;-66
2022/02/26 04:01:42;;;;;;;10.52;2.00;;;;;;;;;;5094716;28;20170;-65
2022/02/26 04:04:08;;;;;;;7.32;1.95;;;;;;;;;;5094634;28;20167;-65
2022/02/26 04:06:34;;;;;;;9.27;2.22;;;;;;;;;;5094445;28;20179;-65
2022/02/26 04:09:00;;;;;;;12.05;2.47;;;;;;;;;;5094393;28;20199;-65
2022/02/26 04:11:26;;;;;;;7.93;2.10;;;;;;;;;;5094675;28;20197;-65
2022/02/26 04:13:52;;;;;;;9.23;2.10;;;;;;;;;;5094647;28;20199;-65
2022/02/26 04:16:18;;;;;;;5.88;2.17;;;;;;;;;;5094591;28;20175;-65
2022/02/26 04:18:44;;;;;;;12.23;2.33;;;;;;;;;;5094618;28;20178;-65
2022/02/26 04:21:10;;;;;;;10.13;1.98;;;;;;;;;;5094911;28;20160;-65
2022/02/26 04:23:36;;;;;;;13.45;2.40;;;;;;;;;;5094619;28;20169;-65
2022/02/26 04:26:02;;;;;;;7.28;2.22;;;;;;;;;;5094768;28;20163;-65
2022/02/26 04:28:27;;;;;;;12.80;2.28;;;;;;;;;;5094997;28;20250;-65
2022/02/26 04:30:53;;;;;;;7.50;1.85;;;;;;;;;;5094278;28;20171;-65
2022/02/26 04:33:20;;;;;;;7.20;1.80;;;;;;;;;;5094415;28;20174;-65
2022/02/26 04:35:46;;;;;;;12.18;2.13;;;;;;;;;;5094364;28;20174;-65
2022/02/26 04:38:12;;;;;;;12.60;1.88;;;;;;;;;;5094158;28;20171;-65
2022/02/26 04:40:38;;;;;;;8.40;2.20;;;;;;;;;;5093823;28;20209;-65
2022/02/26 04:43:04;;;;;;;5.78;1.75;;;;;;;;;;5093885;28;20163;-65
2022/02/26 04:45:30;;;;;;;12.95;2.08;;;;;;;;;;5093836;28;20159;-65
2022/02/26 04:47:56;;;;;;;13.23;2.15;;;;;;;;;;5093971;28;20213;-65
2022/02/26 04:50:22;;;;;;;7.75;2.03;;;;;;;;;;5093666;28;20167;-65
2022/02/26 04:52:48;;;;;;;9.48;2.08;;;;;;;;;;5094104;28;20507;-65
2022/02/26 04:55:14;;;;;;;9.93;1.83;;;;;;;;;;5094118;28;20223;-65
2022/02/26 04:57:40;;;;;;;3.75;1.40;;;;;;;;;;5093982;28;20191;-65
2022/02/26 05:00:08;;;;;;;4.30;1.40;;;;;;;;;;5093679;28;20285;-64
2022/02/26 05:02:34;;;;;;;7.50;1.75;;;;;;;;;;5093916;28;20202;-64
2022/02/26 05:05:00;;;;;;;11.13;2.13;;;;;;;;;;5093686;28;20491;-64
2022/02/26 05:07:26;;;;;;;9.20;1.88;;;;;;;;;;5093980;28;20190;-65
2022/02/26 05:09:52;;;;;;;8.13;1.95;;;;;;;;;;5093555;28;20163;-64
2022/02/26 05:12:18;;;;;;;13.82;1.70;;;;;;;;;;5093517;28;20250;-65
2022/02/26 05:14:44;;;;;;;10.05;1.77;;;;;;;;;;5093991;28;20611;-65
2022/02/26 05:17:09;;;;;;;8.75;2.22;;;;;;;;;;5096408;28;20171;-65
2022/02/26 05:19:35;;;;;;;9.48;1.55;;;;;;;;;;5093515;28;20264;-65
2022/02/26 05:22:01;;;;;;;11.10;1.98;;;;;;;;;;5093518;28;20538;-65
2022/02/26 05:24:27;;;;;;;9.40;1.80;;;;;;;;;;5093324;28;20172;-65
2022/02/26 05:26:53;;;;;;;7.93;1.70;;;;;;;;;;5093228;28;20164;-65
2022/02/26 05:29:20;;;;;;;7.97;1.70;;;;;;;;;;5093326;28;20268;-65
2022/02/26 05:31:45;;;;;;;8.07;1.75;;;;;;;;;;5093441;28;20178;-65
2022/02/26 05:34:11;;;;;;;5.88;1.50;;;;;;;;;;5093595;28;20164;-65
2022/02/26 05:36:38;;;;;;;14.43;1.60;;;;;;;;;;5093160;28;20167;-65
2022/02/26 05:39:04;;;;;;;6.18;1.90;;;;;;;;;;5093172;28;20187;-65
2022/02/26 05:41:30;;;;;;;6.90;1.90;;;;;;;;;;5093830;28;20603;-64
2022/02/26 05:43:56;;;;;;;9.98;1.95;;;;;;;;;;5097077;28;20246;-65
2022/02/26 05:46:22;;;;;;;9.35;1.63;;;;;;;;;;5097217;28;20195;-65
2022/02/26 05:48:48;;;;;;;8.57;1.90;;;;;;;;;;5096967;28;20206;-65
2022/02/26 05:51:14;;;;;;;9.20;2.03;;;;;;;;;;5097076;28;20246;-64
2022/02/26 05:53:40;;;;;;;9.73;2.30;;;;;;;;;;5097196;28;20172;-65
2022/02/26 05:56:07;;;;;;;8.65;1.58;;;;;;;;;;5097067;28;20168;-65
2022/02/26 05:58:32;;;;;;;7.63;1.88;;;;;;;;;;5096685;28;20190;-65
2022/02/26 06:00:58;;;;;;;4.15;1.73;;;;;;;;;;5096994;28;20187;-64
2022/02/26 06:03:24;;;;;;;10.20;2.00;;;;;;;;;;5096809;28;20213;-65
2022/02/26 06:05:50;;;;;;;8.57;1.75;;;;;;;;;;5096712;28;20618;-64
2022/02/26 06:08:16;;;;;;;12.48;1.98;;;;;;;;;;5096810;28;20163;-64
2022/02/26 06:10:42;;;;;;;8.30;1.83;;;;;;;;;;5096626;28;20167;-64
2022/02/26 06:13:08;;;;;;;8.35;1.65;;;;;;;;;;5096588;28;20171;-64
2022/02/26 06:15:34;;;;;;;7.10;1.50;;;;;;;;;;5096505;28;20525;-65
2022/02/26 06:18:00;;;;;;;2.05;1.05;;;;;;;;;;5096583;28;20175;-64
2022/02/26 06:20:26;;;;;;;5.25;1.77;;;;;;;;;;5096288;28;20198;-64
2022/02/26 06:22:52;;;;;;;7.07;1.73;;;;;;;;;;5096355;28;20240;-65
2022/02/26 06:25:19;;;;;;;12.38;2.40;;;;;;;;;;5096271;28;20664;-65
2022/02/26 06:27:45;;;;;;;8.20;1.35;;;;;;;;;;5096173;28;20662;-66
2022/02/26 06:30:12;;;;;;;7.82;1.98;;;;;;;;;;5096258;28;20182;-64
2022/02/26 06:32:38;;;;;;;4.43;1.48;;;;;;;;;;5096139;28;20625;-64
2022/02/26 06:35:05;;;;;;;15.27;2.22;;;;;;;;;;5096235;28;20251;-64
2022/02/26 06:37:31;;;;;;;8.00;1.55;;;;;;;;;;5095988;28;20168;-64
2022/02/26 06:39:57;;;;;;;6.30;1.45;;;;;;;;;;5096330;28;20191;-64
2022/02/26 06:42:24;;;;;;;5.20;1.45;;;;;;;;;;5096007;28;20156;-65
2022/02/26 06:44:50;;;;;;;6.38;1.52;;;;;;;;;;5096243;28;20228;-65
2022/02/26 06:47:16;;;;;;;10.88;1.65;;;;;;;;;;5095861;28;20258;-65
2022/02/26 06:49:42;;;;;;;8.23;1.40;;;;;;;;;;5095823;28;20176;-65
2022/02/26 06:52:08;;;;;;;8.82;1.50;;;;;;;;;;5095688;28;20266;-65
2022/02/26 06:54:34;;;;;;;3.92;1.42;;;;;;;;;;5095849;28;20232;-65
2022/02/26 06:57:00;;;;;;;9.60;1.70;;;;;;;;;;5095995;28;20168;-65
2022/02/26 06:59:26;;;;;;;5.95;1.60;;;;;;;;;;5095554;28;20769;-65
2022/02/26 07:01:53;;;;;;;5.78;1.40;;;;;;;;;;5095496;28;20164;-65
2022/02/26 07:04:19;;;;;;;8.48;1.73;;;;;;;;;;5095630;28;20160;-65
2022/02/26 07:06:45;;;;;;;5.22;1.52;;;;;;;;;;5095343;28;20159;-64
2022/02/26 07:09:14;;;;;;;6.28;1.33;;;;;;;;;;5095824;28;20175;-65
2022/02/26 07:11:40;;;;;;;5.82;1.20;;;;;;;;;;5095593;28;20159;-64
2022/02/26 07:14:06;;;;;;;6.07;1.33;;;;;;;;;;5095600;28;20167;-65
2022/02/26 07:16:32;;;;;;;7.13;1.65;;;;;;;;;;5095377;28;20611;-65
2022/02/26 07:18:58;;;;;;;6.93;2.08;;;;;;;;;;5095431;28;20224;-65
2022/02/26 07:21:24;;;;;;;11.93;1.48;;;;;;;;;;5095341;28;20172;-65
2022/02/26 07:23:50;;;;;;;6.47;1.60;;;;;;;;;;5095167;28;20174;-64
2022/02/26 07:26:16;;;;;;;4.95;1.23;;;;;;;;;;5095453;28;20167;-64
2022/02/26 07:28:42;;;;;;;7.40;1.55;;;;;;;;;;5095027;28;20160;-64
2022/02/26 07:31:08;;;;;;;7.65;1.38;;;;;;;;;;5095136;28;20159;-64
2022/02/26 07:33:33;;;;;;;6.93;1.33;;;;;;;;;;5095142;28;20236;-65
2022/02/26 07:35:59;;;;;;;5.22;1.20;;;;;;;;;;5095162;28;20177;-65
2022/02/26 07:38:25;;;;;;;6.90;1.10;;;;;;;;;;5095005;28;20273;-65
2022/02/26 07:40:51;;;;;;;4.65;1.40;;;;;;;;;;5095083;28;20198;-65
2022/02/26 07:43:17;;;;;;;5.72;1.27;;;;;;;;;;5094851;28;20156;-65
2022/02/26 07:45:43;;;;;;;4.00;1.13;;;;;;;;;;5095034;28;20621;-65
2022/02/26 07:48:09;;;;;;;5.43;1.00;;;;;;;;;;5094924;28;20617;-65
2022/02/26 07:50:35;;;;;;;5.07;1.58;;;;;;;;;;5095001;28;20274;-65
2022/02/26 07:53:01;;;;;;;6.43;1.15;;;;;;;;;;5094590;28;20199;-65
2022/02/26 07:55:27;;;;;;;5.25;1.40;;;;;;;;;;5094574;28;20199;-65
2022/02/26 07:57:53;;;;;;;2.78;1.23;;;;;;;;;;5094994;28;20171;-64
2022/02/26 08:00:19;;;;;;;5.05;1.05;;;;;;;;;;5094604;28;20253;-64
2022/02/26 08:02:45;;;;;;;6.25;1.15;;;;;;;;;;5094595;28;20539;-64
2022/02/26 08:05:10;;;;;;;5.72;1.38;;;;;;;;;;5094235;28;20206;-64
2022/02/26 08:07:36;;;;;;;5.65;1.45;;;;;;;;;;5094633;28;20190;-64
2022/02/26 08:10:03;;;;;;;5.03;1.10;;;;;;;;;;5094818;28;20289;-64
2022/02/26 08:12:29;;;;;;;2.55;1.17;;;;;;;;;;5094271;28;20602;-63
2022/02/26 08:14:55;;;;;;;3.80;0.98;;;;;;;;;;5094617;28;20217;-65
2022/02/26 08:17:21;;;;;;;6.30;1.20;;;;;;;;;;5094262;28;20171;-65
2022/02/26 08:19:47;;;;;;;5.88;1.08;;;;;;;;;;5094110;28;20216;-65
2022/02/26 08:22:13;;;;;;;4.18;1.35;;;;;;;;;;5094542;28;20594;-65
2022/02/26 08:24:39;;;;;;;7.10;1.40;;;;;;;;;;5094395;28;20174;-65
2022/02/26 08:27:05;;;;;;;5.55;1.20;;;;;;;;;;5094433;28;20690;-64
2022/02/26 08:29:31;;;;;;;2.38;0.98;;;;;;;;;;5094071;28;20160;-63
2022/02/26 08:31:58;;;;;;;3.45;1.20;;;;;;;;;;5094515;28;20244;-65
2022/02/26 08:34:24;;;;;;;6.00;1.27;;;;;;;;;;5094311;28;20186;-64
2022/02/26 08:36:50;;;;;;;3.67;1.88;;;;;;;;;;5094178;28;20176;-64
2022/02/26 08:39:16;;;;;;;3.80;0.90;;;;;;;;;;5093833;28;20203;-64
2022/02/26 08:41:42;;;;;;;4.82;1.30;;;;;;;;;;5093871;28;20642;-64
2022/02/26 08:44:08;;;;;;;5.72;1.13;;;;;;;;;;5093636;28;20178;-64
2022/02/26 08:46:34;;;;;;;3.42;1.20;;;;;;;;;;5093736;28;20684;-64
2022/02/26 08:49:00;;;;;;;3.00;1.10;;;;;;;;;;5094092;28;20164;-64
2022/02/26 08:51:26;;;;;;;2.67;0.80;;;;;;;;;;5093695;28;20495;-65
2022/02/26 08:53:53;;;;;;;6.10;1.30;;;;;;;;;;5093757;28;20177;-65
2022/02/26 08:56:21;;;;;;;4.18;0.90;;;;;;;;;;5093946;28;20910;-65
2022/02/26 08:58:47;;;;;;;5.30;1.13;;;;;;;;;;5093917;28;20198;-65
2022/02/26 09:01:13;;;;;;;4.50;1.00;;;;;;;;;;5093699;28;20195;-65
2022/02/26 09:03:39;;;;;;;4.00;1.05;;;;;;;;;;5093790;28;20455;-65
2022/02/26 09:06:05;;;;;;;3.80;1.08;;;;;;;;;;5093665;28;20163;-65
2022/02/26 09:08:32;;;;;;;5.30;0.90;;;;;;;;;;5093605;28;20164;-65
2022/02/26 09:10:58;;;;;;;4.22;1.40;;;;;;;;;;5093932;28;20266;-65
2022/02/26 09:13:23;;;;;;;6.07;1.17;;;;;;;;;;5093856;28;20250;-65
2022/02/26 09:15:49;;;;;;;4.45;1.23;;;;;;;;;;5095022;28;20174;-65
2022/02/26 09:18:15;;;;;;;5.53;1.30;;;;;;;;;;5097463;28;20233;-66
2022/02/26 09:20:41;;;;;;;2.95;1.02;;;;;;;;;;5097803;28;20268;-65
2022/02/26 09:23:07;;;;;;;2.95;1.13;;;;;;;;;;5097719;28;20159;-65
2022/02/26 09:25:33;;;;;;;3.53;1.13;;;;;;;;;;5097634;28;20651;-66
2022/02/26 09:28:00;;;;;;;3.45;1.13;;;;;;;;;;5096566;28;20214;-66
2022/02/26 09:30:26;;;;;;;2.28;0.90;;;;;;;;;;5097550;28;20175;-66
2022/02/26 09:32:52;;;;;;;2.20;0.90;;;;;;;;;;5097665;28;20179;-66
2022/02/26 09:35:18;;;;;;;1.63;1.00;;;;;;;;;;5097426;28;20237;-65
2022/02/26 09:37:44;;;;;;;3.38;1.00;;;;;;;;;;5097958;28;20583;-65
2022/02/26 09:40:10;;;;;;;2.00;0.98;;;;;;;;;;5097187;28;20641;-65
2022/02/26 09:42:36;;;;;;;4.75;0.90;;;;;;;;;;5097325;28;20537;-65
2022/02/26 09:45:03;;;;;;;3.85;0.95;;;;;;;;;;5097056;28;20164;-65
2022/02/26 09:47:29;;;;;;;3.42;1.10;;;;;;;;;;5097009;28;20163;-64
2022/02/26 09:49:55;;;;;;;6.75;1.08;;;;;;;;;;5097190;28;20239;-65
2022/02/26 09:52:23;;;;;;;3.25;1.17;;;;;;;;;;5097074;28;20179;-65
2022/02/26 09:54:50;;;;;;;4.65;1.38;;;;;;;;;;5097315;28;20182;-64
2022/02/26 09:57:17;;;;;;;7.03;1.10;;;;;;;;;;5097376;28;20162;-65
2022/02/26 09:59:44;;;;;;;2.40;1.00;;;;;;;;;;5096682;28;20214;-65
2022/02/26 10:02:10;;;;;;;2.05;0.90;;;;;;;;;;5097243;28;20167;-65
2022/02/26 10:04:37;;;;;;;1.92;0.82;;;;;;;;;;5097204;28;20155;-64
2022/02/26 10:07:13;;;;;;;4.30;0.93;;;;;;;;;;5097041;28;20172;-64
2022/02/26 10:09:43;;;;;;;3.67;1.10;;;;;;;;;;5097212;28;20171;-65
2022/02/26 10:12:25;;;;;;;4.38;1.00;;;;;;;;;;5096976;28;20254;-65
2022/02/26 10:14:54;;;;;;;2.60;0.90;;;;;;;;;;5097015;28;20163;-65
2022/02/26 10:17:37;;;;;;;3.13;0.80;;;;;;;;;;5097731;28;20183;-65
2022/02/26 10:20:08;;;;;;;3.20;0.80;;;;;;;;;;5096902;28;20210;-65
2022/02/26 10:22:35;;;;;;;2.45;0.93;;;;;;;;;;5098122;28;20232;-65
2022/02/26 10:25:21;;;;;;;2.55;0.93;;;;;;;;;;5096937;28;20160;-64
2022/02/26 10:27:48;;;;;;;2.35;0.80;;;;;;;;;;5096028;28;20226;-65
2022/02/26 10:30:15;;;;;;;2.67;0.80;;;;;;;;;;5096650;28;20204;-65
2022/02/26 10:32:42;;;;;;;5.03;1.02;;;;;;;;;;5096832;28;20711;-65
2022/02/26 10:35:08;;;;;;;2.50;1.00;;;;;;;;;;5097443;28;20171;-65
2022/02/26 10:37:34;;;;;;;1.83;1.10;;;;;;;;;;5097246;28;20171;-65
2022/02/26 10:40:00;;;;;;;6.53;1.10;;;;;;;;;;5096497;28;20191;-64
2022/02/26 10:42:28;;;;;;;3.22;1.08;;;;;;;;;;5097076;28;20538;-64
2022/02/26 10:45:03;;;;;;;3.50;1.50;;;;;;;;;;5096361;28;20248;-64
2022/02/26 10:47:29;;;;;;;3.53;0.88;;;;;;;;;;5095909;28;20186;-63
2022/02/26 10:49:56;;;;;;;1.50;0.80;;;;;;;;;;5095994;28;20168;-65
2022/02/26 10:52:22;;;;;;;2.97;1.02;;;;;;;;;;5096092;28;20178;-65
2022/02/26 10:54:51;;;;;;;2.72;1.00;;;;;;;;;;5096271;28;20164;-64
2022/02/26 10:57:17;;;;;;;3.13;1.27;;;;;;;;;;5096175;28;20611;-64
2022/02/26 10:59:44;;;;;;;2.60;0.88;;;;;;;;;;5095777;28;20238;-64
2022/02/26 11:02:12;;;;;;;1.92;0.93;;;;;;;;;;5095695;28;20163;-64
2022/02/26 11:04:38;;;;;;;2.42;0.70;;;;;;;;;;5095926;28;20168;-64
2022/02/26 11:07:06;;;;;;;3.17;0.77;;;;;;;;;;5096001;28;20167;-64
2022/02/26 11:09:32;;;;;;;2.75;0.70;;;;;;;;;;5095636;28;20569;-64
2022/02/26 11:11:58;;;;;;;3.40;0.77;;;;;;;;;;5095667;28;20159;-64
2022/02/26 11:14:25;;;;;;;2.40;0.50;;;;;;;;;;5095771;28;20168;-64
2022/02/26 11:16:58;;;;;;;2.88;0.60;;;;;;;;;;5096115;28;20266;-64
2022/02/26 11:19:25;;;;;;;3.70;0.70;;;;;;;;;;5095800;28;20209;-64
2022/02/26 11:21:52;;;;;;;2.88;0.60;;;;;;;;;;5095469;28;20372;-64
2022/02/26 11:24:19;;;;;;;1.67;0.50;;;;;;;;;;5095283;28;20218;-63
2022/02/26 11:26:45;;;;;;;1.10;0.50;;;;;;;;;;5095033;28;20260;-64
2022/02/26 11:29:11;;;;;;;2.75;0.70;;;;;;;;;;5095161;28;20182;-64
2022/02/26 11:31:48;;;;;;;1.63;0.60;;;;;;;;;;5095239;28;20511;-63
2022/02/26 11:34:21;;;;;;;1.10;0.60;;;;;;;;;;5095123;28;20176;-64
2022/02/26 11:36:52;;;;;;;2.42;0.70;;;;;;;;;;5095183;28;20155;-64
2022/02/26 11:39:33;;;;;;;2.10;0.40;;;;;;;;;;5094176;28;20238;-64
2022/02/26 11:42:14;;;;;;;0.45;0.38;;;;;;;;;;5095209;28;20164;-63
2022/02/26 11:44:41;;;;;;;0.85;0.60;;;;;;;;;;5095157;28;20283;-64
2022/02/26 11:47:11;;;;;;;1.77;0.50;;;;;;;;;;5095497;28;20200;-63
2022/02/26 11:49:37;;;;;;;2.13;0.50;;;;;;;;;;5094830;28;20168;-63
2022/02/26 11:52:03;;;;;;;2.10;0.50;;;;;;;;;;5094672;28;20246;-65
2022/02/26 11:54:30;;;;;;;0.43;0.30;;;;;;;;;;5094863;28;20529;-63
2022/02/26 11:56:59;;;;;;;0.82;0.45;;;;;;;;;;5094693;28;20375;-65
2022/02/26 11:59:38;;;;;;;1.52;0.40;;;;;;;;;;5094539;28;20264;-64
2022/02/26 12:02:04;;;;;;;3.20;0.70;;;;;;;;;;5094436;28;20630;-65
2022/02/26 12:04:49;;;;;;;1.45;0.63;;;;;;;;;;5094486;28;20160;-65
2022/02/26 12:07:32;;;;;;;2.58;0.40;;;;;;;;;;5094392;28;20163;-65
2022/02/26 12:09:59;;;;;;;1.73;0.77;;;;;;;;;;5095260;28;20599;-63
2022/02/26 12:12:53;;;;;;;0.70;0.50;;;;;;;;;;5095353;28;20190;-64
2022/02/26 12:15:20;;;;;;;2.28;0.60;;;;;;;;;;5093552;28;20179;-64
2022/02/26 12:17:55;;;;;;;0.80;0.50;;;;;;;;;;5094351;28;20167;-64
2022/02/26 12:20:29;;;;;;;1.25;0.50;;;;;;;;;;5094216;28;20205;-64
2022/02/26 12:23:06;;;;;;;0.98;0.40;;;;;;;;;;5094275;28;20163;-64
2022/02/26 12:25:37;;;;;;;1.27;0.50;;;;;;;;;;5094160;28;20575;-64
2022/02/26 12:28:07;;;;;;;0.60;0.20;;;;;;;;;;5094185;28;20152;-64
2022/02/26 12:30:37;;;;;;;1.08;0.30;;;;;;;;;;5093954;28;20156;-64
2022/02/26 12:33:03;;;;;;;0.20;0.20;;;;;;;;;;5094078;28;20607;-64
2022/02/26 12:35:36;;;;;;;0.88;0.40;;;;;;;;;;5093873;28;20236;-64
2022/02/26 12:38:02;;;;;;;0.55;0.20;;;;;;;;;;5094033;28;20246;-64
2022/02/26 12:40:33;;;;;;;2.28;0.30;;;;;;;;;;5093826;28;20290;-64
2022/02/26 12:43:11;;;;;;;1.35;0.20;;;;;;;;;;5094252;28;20187;-64
2022/02/26 12:45:41;;;;;;;1.33;0.30;;;;;;;;;;5093952;28;20147;-64
2022/02/26 12:48:09;;;;;;;0.30;0.30;;;;;;;;;;5093879;28;20173;-64
2022/02/26 12:50:36;;;;;;;1.13;0.43;;;;;;;;;;5093833;28;20164;-64
2022/02/26 12:53:02;;;;;;;0.85;0.40;;;;;;;;;;5093817;28;20167;-64
2022/02/26 12:55:30;;;;;;;2.33;0.50;;;;;;;;;;5093766;28;20634;-64
2022/02/26 12:57:56;;;;;;;2.40;0.60;;;;;;;;;;5093837;28;20168;-64
2022/02/26 13:00:35;;;;;;;1.60;0.50;;;;;;;;;;5093402;28;20203;-64
2022/02/26 13:03:03;;;;;;;1.17;0.40;;;;;;;;;;5093874;28;20505;-63
2022/02/26 13:05:31;;;;;;;0.98;0.47;;;;;;;;;;5093825;28;20179;-64
2022/02/26 13:07:57;;;;;;;0.85;0.38;;;;;;;;;;5093667;28;20155;-64
2022/02/26 13:10:27;;;;;;;2.05;0.60;;;;;;;;;;5093959;28;20641;-64
2022/02/26 13:12:53;;;;;;;1.13;0.60;;;;;;;;;;5093694;28;20155;-65
2022/02/26 13:15:19;;;;;;;1.25;0.68;;;;;;;;;;5093635;28;20168;-65
2022/02/26 13:17:49;;;;;;;2.45;0.90;;;;;;;;;;5093558;28;20174;-65
2022/02/26 13:20:16;;;;;;;1.50;0.50;;;;;;;;;;5093528;28;20320;-65
2022/02/26 13:22:46;;;;;;;1.40;0.55;;;;;;;;;;5093504;28;20184;-64
2022/02/26 13:25:12;;;;;;;1.17;0.50;;;;;;;;;;5093789;28;20537;-65
2022/02/26 13:27:38;;;;;;;1.73;0.75;;;;;;;;;;5093442;28;20364;-65
2022/02/26 13:30:06;;;;;;;1.25;0.63;;;;;;;;;;5093736;28;20167;-65
2022/02/26 13:32:39;;;;;;;1.55;0.57;;;;;;;;;;5093359;28;20167;-65
2022/02/26 13:35:06;;;;;;;0.98;0.80;;;;;;;;;;5094207;28;20160;-64
2022/02/26 13:37:33;;;;;;;1.48;0.70;;;;;;;;;;5093793;28;20163;-64
2022/02/26 13:39:59;;;;;;;1.90;0.60;;;;;;;;;;5093494;28;20333;-64
2022/02/26 13:42:26;;;;;;;1.55;0.65;;;;;;;;;;5093721;28;20654;-65
2022/02/26 13:44:57;;;;;;;0.77;0.47;;;;;;;;;;5096283;28;20252;-64
2022/02/26 13:47:23;;;;;;;3.67;0.47;;;;;;;;;;5093372;28;20280;-64
2022/02/26 13:49:52;;;;;;;2.90;0.77;;;;;;;;;;5093492;28;20167;-65
2022/02/26 13:52:18;;;;;;;1.77;0.90;;;;;;;;;;5093493;28;20191;-64
2022/02/26 13:54:45;;;;;;;2.80;0.60;;;;;;;;;;5093708;28;20599;-64
2022/02/26 13:57:13;;;;;;;2.55;0.60;;;;;;;;;;5093414;28;20233;-64
2022/02/26 13:59:40;;;;;;;1.33;0.70;;;;;;;;;;5093010;28;20206;-64
2022/02/26 14:02:06;;;;;;;0.73;0.50;;;;;;;;;;5093336;28;20166;-64
2022/02/26 14:04:39;;;;;;;1.58;0.60;;;;;;;;;;5097765;28;20167;-65
2022/02/26 14:07:05;;;;;;;2.40;0.73;;;;;;;;;;5097566;28;20179;-65
2022/02/26 14:09:31;;;;;;;1.77;0.60;;;;;;;;;;5102567;28;20202;-65
2022/02/26 14:12:02;;;;;;;1.20;0.45;;;;;;;;;;5100236;28;20499;-65
2022/02/26 14:14:32;;;;;;;1.27;0.57;;;;;;;;;;5098397;28;20191;-65
2022/02/26 14:17:00;;;;;;;1.92;0.60;;;;;;;;;;5096785;28;20178;-65
2022/02/26 14:19:27;;;;;;;2.35;0.70;;;;;;;;;;5096642;28;20261;-64
2022/02/26 14:21:55;;;;;;;2.20;0.65;;;;;;;;;;5096139;28;20637;-64
2022/02/26 14:24:22;;;;;;;1.52;0.90;;;;;;;;;;5096128;28;20206;-65
2022/02/26 14:26:51;;;;;;;4.72;0.90;;;;;;;;;;5096526;28;20155;-64
2022/02/26 14:29:26;;;;;;;2.45;0.80;;;;;;;;;;5096682;28;20178;-64
2022/02/26 14:32:06;;;;;;;1.50;0.80;;;;;;;;;;5096240;28;20598;-63
2022/02/26 14:34:32;;;;;;;2.33;0.88;;;;;;;;;;5096677;28;20555;-65
2022/02/26 14:36:59;;;;;;;1.17;0.70;;;;;;;;;;5096147;28;20501;-66
2022/02/26 14:39:25;;;;;;;2.38;0.90;;;;;;;;;;5096063;28;20167;-64